createdAt,value
2019-02-09T00:02:24.040Z,99242.53
2019-02-09T00:04:54.978Z,99237.39
2019-02-09T00:07:27.759Z,99232.90
2019-02-09T00:09:58.401Z,99231.13
2019-02-09T00:12:29.829Z,99225.70
2019-02-09T00:15:01.058Z,99217.80
2019-02-09T00:17:32.358Z,99219.52
2019-02-09T00:20:02.990Z,99216.34
2019-02-09T00:22:33.720Z,99213.06
2019-02-09T00:25:04.719Z,99200.42
2019-02-09T00:27:35.439Z,99205.38
2019-02-09T00:30:08.875Z,99199.11
2019-02-09T00:32:39.819Z,99193.61
2019-02-09T00:35:11.749Z,99196.93
2019-02-09T00:37:42.519Z,99191.03
2019-02-09T00:40:13.639Z,99183.70
2019-02-09T00:42:44.220Z,99180.75
2019-02-09T00:45:16.920Z,99185.78
2019-02-09T00:47:47.999Z,99180.42
2019-02-09T00:50:19.682Z,99176.83
2019-02-09T00:52:50.419Z,99170.43
2019-02-09T00:55:22.130Z,99162.79
2019-02-09T00:57:52.780Z,99162.79
2019-02-09T01:00:25.035Z,99157.00
2019-02-09T01:02:55.800Z,99160.08
2019-02-09T01:05:31.500Z,99160.80
2019-02-09T01:08:02.238Z,99144.30
2019-02-09T01:10:33.590Z,99142.47
2019-02-09T01:13:04.825Z,99139.73
2019-02-09T01:15:36.290Z,99134.77
2019-02-09T01:18:07.625Z,99130.68
2019-02-09T01:20:38.599Z,99120.59
2019-02-09T01:23:10.099Z,99117.08
2019-02-09T01:25:41.200Z,99110.86
2019-02-09T01:28:12.014Z,99103.48
2019-02-09T01:30:42.770Z,99106.25
2019-02-09T01:33:13.545Z,99102.09
2019-02-09T01:35:44.380Z,99103.66
2019-02-09T01:38:15.079Z,99096.39
2019-02-09T01:40:45.771Z,99097.69
2019-02-09T01:43:16.393Z,99085.18
2019-02-09T01:45:47.032Z,99083.17
2019-02-09T01:48:18.129Z,99075.77
2019-02-09T01:50:49.605Z,99070.95
2019-02-09T01:53:20.750Z,99063.14
2019-02-09T01:55:51.690Z,99044.66
2019-02-09T01:58:22.934Z,99042.63
2019-02-09T02:00:53.742Z,99041.48
2019-02-09T02:03:24.439Z,99032.02
2019-02-09T02:05:55.280Z,99030.77
2019-02-09T02:08:26.142Z,99022.19
2019-02-09T02:10:56.975Z,99021.92
2019-02-09T02:13:29.118Z,99013.50
2019-02-09T02:15:59.830Z,99020.52
2019-02-09T02:18:30.511Z,99010.58
2019-02-09T02:21:01.359Z,98995.37
2019-02-09T02:23:32.122Z,99009.31
2019-02-09T02:26:02.950Z,99004.83
2019-02-09T02:28:33.658Z,99001.27
2019-02-09T02:31:04.438Z,98999.25
2019-02-09T02:33:35.098Z,98993.25
2019-02-09T02:36:06.219Z,98983.55
2019-02-09T02:38:37.126Z,98988.28
2019-02-09T02:41:07.839Z,98974.38
2019-02-09T02:43:38.656Z,98977.92
2019-02-09T02:46:10.934Z,98980.47
2019-02-09T02:48:41.659Z,98983.64
2019-02-09T02:51:12.479Z,98976.52
2019-02-09T02:53:43.258Z,98973.10
2019-02-09T02:56:14.080Z,98969.27
2019-02-09T02:58:44.760Z,98971.05
2019-02-09T03:01:15.579Z,98957.39
2019-02-09T03:03:46.343Z,98963.11
2019-02-09T03:06:16.987Z,98960.81
2019-02-09T03:08:47.610Z,98960.67
2019-02-09T03:11:18.478Z,98957.45
2019-02-09T03:13:49.140Z,98955.63
2019-02-09T03:16:19.911Z,98950.52
2019-02-09T03:18:50.996Z,98951.16
2019-02-09T03:21:21.791Z,98941.36
2019-02-09T03:23:52.540Z,98943.17
2019-02-09T03:26:23.239Z,98935.01
2019-02-09T03:28:53.960Z,98942.53
2019-02-09T03:31:24.721Z,98937.19
2019-02-09T03:33:55.418Z,98943.69
2019-02-09T03:36:26.201Z,98935.05
2019-02-09T03:38:56.899Z,98930.45
2019-02-09T03:41:27.579Z,98939.79
2019-02-09T03:43:58.399Z,98941.43
2019-02-09T03:46:29.071Z,98927.53
2019-02-09T03:48:59.740Z,98923.30
2019-02-09T03:51:30.439Z,98919.59
2019-02-09T03:54:01.550Z,98920.63
2019-02-09T03:56:32.299Z,98903.81
2019-02-09T03:59:03.171Z,98907.91
2019-02-09T04:01:34.004Z,98900.02
2019-02-09T04:04:04.973Z,98902.30
2019-02-09T04:06:35.730Z,98886.58
2019-02-09T04:09:09.615Z,98891.17
2019-02-09T04:11:40.390Z,98895.16
2019-02-09T04:14:11.151Z,98889.55
2019-02-09T04:16:41.820Z,98896.17
2019-02-09T04:19:12.682Z,98881.73
2019-02-09T04:21:46.618Z,98882.58
2019-02-09T04:24:17.476Z,98868.44
2019-02-09T04:26:48.211Z,98859.88
2019-02-09T04:29:18.859Z,98869.97
2019-02-09T04:31:49.860Z,98859.55
2019-02-09T04:34:20.393Z,98857.92
2019-02-09T04:36:51.120Z,98850.92
2019-02-09T04:39:21.988Z,98854.89
2019-02-09T04:41:52.681Z,98839.56
2019-02-09T04:44:23.460Z,98839.69
2019-02-09T04:46:54.240Z,98841.98
2019-02-09T04:49:25.072Z,98833.44
2019-02-09T04:51:55.878Z,98829.91
2019-02-09T04:54:26.700Z,98819.44
2019-02-09T04:56:57.580Z,98826.58
2019-02-09T04:59:28.239Z,98833.84
2019-02-09T05:01:59.459Z,98835.61
2019-02-09T05:04:30.281Z,98835.98
2019-02-09T05:07:01.401Z,98820.21
2019-02-09T05:09:32.240Z,98807.47
2019-02-09T05:12:02.920Z,98802.37
2019-02-09T05:14:33.735Z,98817.91
2019-02-09T05:17:04.490Z,98808.75
2019-02-09T05:19:35.239Z,98799.83
2019-02-09T05:22:06.101Z,98793.71
2019-02-09T05:24:36.906Z,98784.42
2019-02-09T05:27:07.877Z,98786.47
2019-02-09T05:29:38.601Z,98788.89
2019-02-09T05:32:09.379Z,98789.88
2019-02-09T05:34:40.091Z,98791.42
2019-02-09T05:37:10.839Z,98794.34
2019-02-09T05:39:41.599Z,98785.80
2019-02-09T05:42:12.444Z,98766.94
2019-02-09T05:44:43.190Z,98764.55
2019-02-09T05:47:13.839Z,98761.59
2019-02-09T05:49:44.678Z,98748.73
2019-02-09T05:52:15.497Z,98748.22
2019-02-09T05:54:46.300Z,98747.59
2019-02-09T05:57:17.022Z,98733.42
2019-02-09T05:59:47.755Z,98741.41
2019-02-09T06:02:18.679Z,98752.13
2019-02-09T06:04:49.361Z,98747.92
2019-02-09T06:07:20.116Z,98745.36
2019-02-09T06:09:50.755Z,98743.80
2019-02-09T06:12:21.436Z,98739.45
2019-02-09T06:14:52.921Z,98737.55
2019-02-09T06:17:23.676Z,98736.94
2019-02-09T06:19:54.375Z,98732.01
2019-02-09T06:22:25.099Z,98727.66
2019-02-09T06:24:55.839Z,98720.80
2019-02-09T06:27:26.603Z,98714.16
2019-02-09T06:29:57.435Z,98708.45
2019-02-09T06:32:27.975Z,98703.97
2019-02-09T06:34:59.098Z,98704.00
2019-02-09T06:37:29.759Z,98712.20
2019-02-09T06:40:00.383Z,98709.19
2019-02-09T06:42:31.095Z,98704.44
2019-02-09T06:45:01.892Z,98707.77
2019-02-09T06:47:32.504Z,98711.41
2019-02-09T06:50:02.935Z,98715.98
2019-02-09T06:52:33.838Z,98721.29
2019-02-09T06:55:05.365Z,98727.33
2019-02-09T06:57:37.636Z,98725.20
2019-02-09T07:00:13.042Z,98724.27
2019-02-09T07:02:43.528Z,98733.59
2019-02-09T07:05:17.934Z,98746.06
2019-02-09T07:07:48.918Z,98732.70
2019-02-09T07:10:22.689Z,98731.59
2019-02-09T07:12:53.319Z,98738.25
2019-02-09T07:15:27.389Z,98731.69
2019-02-09T07:17:58.263Z,98748.36
2019-02-09T07:20:28.891Z,98751.03
2019-02-09T07:22:59.942Z,98738.15
2019-02-09T07:25:30.499Z,98734.80
2019-02-09T07:28:12.163Z,98742.90
2019-02-09T07:30:43.209Z,98738.44
2019-02-09T07:33:14.040Z,98732.05
2019-02-09T07:35:44.710Z,98728.20
2019-02-09T07:38:15.452Z,98728.36
2019-02-09T07:40:46.071Z,98713.86
2019-02-09T07:43:16.979Z,98717.55
2019-02-09T07:45:47.559Z,98710.25
2019-02-09T07:48:18.136Z,98703.11
2019-02-09T07:50:48.743Z,98715.27
2019-02-09T07:53:19.320Z,98722.16
2019-02-09T07:55:50.472Z,98729.81
2019-02-09T07:58:20.994Z,98722.92
2019-02-09T08:00:51.581Z,98711.70
2019-02-09T08:03:22.242Z,98710.09
2019-02-09T08:05:52.735Z,98706.15
2019-02-09T08:08:23.410Z,98712.04
2019-02-09T08:10:54.031Z,98712.22
2019-02-09T08:13:24.684Z,98725.84
2019-02-09T08:15:55.345Z,98723.47
2019-02-09T08:18:26.060Z,98721.01
2019-02-09T08:20:56.688Z,98717.62
2019-02-09T08:23:27.264Z,98720.73
2019-02-09T08:25:57.831Z,98721.91
2019-02-09T08:28:28.374Z,98718.33
2019-02-09T08:30:58.919Z,98734.46
2019-02-09T08:33:29.709Z,98729.67
2019-02-09T08:36:00.480Z,98722.65
2019-02-09T08:38:31.139Z,98721.01
2019-02-09T08:41:01.619Z,98713.92
2019-02-09T08:43:32.248Z,98717.16
2019-02-09T08:46:02.926Z,98715.88
2019-02-09T08:48:33.426Z,98717.88
2019-02-09T08:51:09.405Z,98703.15
2019-02-09T08:53:40.013Z,98718.24
2019-02-09T08:56:10.720Z,98722.64
2019-02-09T08:58:41.455Z,98719.91
2019-02-09T09:01:12.065Z,98721.84
2019-02-09T09:03:42.809Z,98732.88
2019-02-09T09:06:13.362Z,98728.72
2019-02-09T09:08:43.953Z,98731.09
2019-02-09T09:11:14.661Z,98717.13
2019-02-09T09:13:45.201Z,98729.15
2019-02-09T09:16:15.980Z,98733.45
2019-02-09T09:18:46.650Z,98726.77
2019-02-09T09:21:17.227Z,98739.58
2019-02-09T09:23:48.018Z,98749.91
2019-02-09T09:26:19.003Z,98753.52
2019-02-09T09:28:49.753Z,98757.61
2019-02-09T09:31:20.340Z,98749.64
2019-02-09T09:33:59.049Z,98738.29
2019-02-09T09:36:30.157Z,98740.77
2019-02-09T09:39:00.781Z,98741.70
2019-02-09T09:41:31.365Z,98742.31
2019-02-09T09:44:17.609Z,98745.33
2019-02-09T09:46:48.470Z,98756.34
2019-02-09T09:49:19.110Z,98752.22
2019-02-09T09:51:49.907Z,98748.55
2019-02-09T09:54:20.770Z,98744.62
2019-02-09T09:56:51.379Z,98744.59
2019-02-09T09:59:22.291Z,98749.63
2019-02-09T10:01:52.881Z,98748.64
2019-02-09T10:04:23.588Z,98769.88
2019-02-09T10:06:54.162Z,98776.20
2019-02-09T10:09:24.864Z,98758.52
2019-02-09T10:12:01.504Z,98742.77
2019-02-09T10:14:32.281Z,98739.31
2019-02-09T10:17:02.864Z,98731.06
2019-02-09T10:19:33.504Z,98737.94
2019-02-09T10:22:04.095Z,98752.80
2019-02-09T10:24:34.679Z,98751.61
2019-02-09T10:27:05.169Z,98756.45
2019-02-09T10:29:35.675Z,98767.20
2019-02-09T10:32:09.225Z,98781.55
2019-02-09T10:34:39.800Z,98764.97
2019-02-09T10:37:10.314Z,98763.16
2019-02-09T10:39:40.901Z,98749.33
2019-02-09T10:42:11.436Z,98754.69
2019-02-09T10:44:42.000Z,98766.73
2019-02-09T10:47:12.733Z,98771.69
2019-02-09T10:49:46.774Z,98780.75
2019-02-09T10:52:19.123Z,98787.98
2019-02-09T10:54:49.859Z,98785.89
2019-02-09T10:57:20.379Z,98783.05
2019-02-09T10:59:58.081Z,98783.11
2019-02-09T11:02:28.571Z,98782.71
2019-02-09T11:04:59.154Z,98780.91
2019-02-09T11:07:29.774Z,98778.85
2019-02-09T11:10:02.219Z,98773.80
2019-02-09T11:12:32.744Z,98766.09
2019-02-09T11:15:03.309Z,98762.91
2019-02-09T11:17:33.953Z,98776.31
2019-02-09T11:20:05.303Z,98774.02
2019-02-09T11:22:36.009Z,98767.13
2019-02-09T11:25:08.639Z,98774.95
2019-02-09T11:27:41.353Z,98776.58
2019-02-09T11:30:19.892Z,98774.41
2019-02-09T11:32:50.995Z,98765.81
2019-02-09T11:35:22.199Z,98762.05
2019-02-09T11:38:01.175Z,98767.94
2019-02-09T11:40:32.015Z,98750.66
2019-02-09T11:43:04.127Z,98776.53
2019-02-09T11:45:35.703Z,98767.23
2019-02-09T11:48:07.134Z,98776.16
2019-02-09T11:50:37.744Z,98765.17
2019-02-09T11:53:08.571Z,98765.91
2019-02-09T11:55:39.172Z,98760.31
2019-02-09T11:58:09.936Z,98767.44
2019-02-09T12:00:45.611Z,98761.33
2019-02-09T12:03:16.506Z,98768.17
2019-02-09T12:05:47.454Z,98769.91
2019-02-09T12:08:18.296Z,98772.42
2019-02-09T12:10:48.969Z,98767.05
2019-02-09T12:13:19.641Z,98761.95
2019-02-09T12:15:52.262Z,98766.23
2019-02-09T12:18:23.360Z,98767.95
2019-02-09T12:20:53.898Z,98768.77
2019-02-09T12:23:24.490Z,98776.95
2019-02-09T12:26:05.727Z,98780.95
2019-02-09T12:28:36.348Z,98786.09
2019-02-09T12:31:07.028Z,98765.11
2019-02-09T12:33:37.677Z,98779.30
2019-02-09T12:36:09.066Z,98783.34
2019-02-09T12:38:39.804Z,98782.82
2019-02-09T12:41:10.599Z,98788.11
2019-02-09T12:43:42.452Z,98773.59
2019-02-09T12:46:13.119Z,98783.88
2019-02-09T12:48:43.820Z,98780.36
2019-02-09T12:51:14.419Z,98780.28
2019-02-09T12:53:45.056Z,98787.70
2019-02-09T12:56:15.660Z,98793.65
2019-02-09T12:58:46.210Z,98789.60
2019-02-09T13:01:16.977Z,98781.78
2019-02-09T13:03:47.627Z,98787.17
2019-02-09T13:06:18.412Z,98794.75
2019-02-09T13:08:50.183Z,98793.52
2019-02-09T13:11:20.772Z,98794.08
2019-02-09T13:14:00.086Z,98800.20
2019-02-09T13:16:30.727Z,98800.08
2019-02-09T13:19:01.355Z,98808.93
2019-02-09T13:21:31.970Z,98809.15
2019-02-09T13:24:02.520Z,98816.14
2019-02-09T13:26:33.107Z,98815.10
2019-02-09T13:29:03.632Z,98823.16
2019-02-09T13:31:34.280Z,98833.06
2019-02-09T13:34:04.994Z,98823.07
2019-02-09T13:36:35.605Z,98821.48
2019-02-09T13:39:09.228Z,98827.23
2019-02-09T13:41:39.885Z,98816.34
2019-02-09T13:44:10.508Z,98828.27
2019-02-09T13:46:41.177Z,98832.29
2019-02-09T13:49:11.695Z,98829.86
2019-02-09T13:51:47.801Z,98827.71
2019-02-09T13:54:18.335Z,98834.92
2019-02-09T13:56:48.864Z,98829.38
2019-02-09T13:59:19.442Z,98824.50
2019-02-09T14:01:50.420Z,98824.50
2019-02-09T14:04:21.250Z,98828.06
2019-02-09T14:06:51.891Z,98833.69
2019-02-09T14:09:22.611Z,98830.08
2019-02-09T14:11:53.544Z,98828.84
2019-02-09T14:14:24.270Z,98833.61
2019-02-09T14:16:54.960Z,98834.80
2019-02-09T14:19:25.724Z,98827.68
2019-02-09T14:22:04.396Z,98831.33
2019-02-09T14:24:34.949Z,98838.42
2019-02-09T14:27:05.591Z,98840.86
2019-02-09T14:29:36.182Z,98843.44
2019-02-09T14:32:07.343Z,98846.62
2019-02-09T14:34:38.075Z,98848.05
2019-02-09T14:37:08.624Z,98843.98
2019-02-09T14:39:39.231Z,98849.43
2019-02-09T14:42:09.825Z,98850.72
2019-02-09T14:44:40.346Z,98859.22
2019-02-09T14:47:11.000Z,98846.22
2019-02-09T14:49:41.609Z,98851.12
2019-02-09T14:52:12.247Z,98837.98
2019-02-09T14:54:43.291Z,98841.45
2019-02-09T14:57:13.849Z,98843.56
2019-02-09T14:59:44.390Z,98850.41
2019-02-09T15:02:15.021Z,98852.91
2019-02-09T15:04:45.700Z,98864.39
2019-02-09T15:07:16.390Z,98861.13
2019-02-09T15:09:47.145Z,98857.98
2019-02-09T15:12:17.673Z,98851.50
2019-02-09T15:14:48.391Z,98850.72
2019-02-09T15:17:18.900Z,98853.55
2019-02-09T15:19:49.451Z,98854.43
2019-02-09T15:22:20.130Z,98858.70
2019-02-09T15:24:53.861Z,98861.85
2019-02-09T15:27:25.558Z,98859.28
2019-02-09T15:29:56.383Z,98862.48
2019-02-09T15:32:26.959Z,98863.27
2019-02-09T15:34:57.624Z,98859.52
2019-02-09T15:37:28.220Z,98868.11
2019-02-09T15:39:58.830Z,98867.13
2019-02-09T15:42:29.522Z,98874.26
2019-02-09T15:45:00.257Z,98871.77
2019-02-09T15:47:31.016Z,98876.80
2019-02-09T15:50:03.107Z,98883.23
2019-02-09T15:52:33.851Z,98880.28
2019-02-09T15:55:04.606Z,98884.04
2019-02-09T15:57:35.242Z,98880.34
2019-02-09T16:00:12.827Z,98881.23
2019-02-09T16:02:44.776Z,98885.28
2019-02-09T16:05:15.665Z,98884.89
2019-02-09T16:07:46.230Z,98886.09
2019-02-09T16:10:19.160Z,98888.04
2019-02-09T16:12:51.108Z,98894.84
2019-02-09T16:15:26.896Z,98893.66
2019-02-09T16:17:59.415Z,98891.52
2019-02-09T16:20:30.546Z,98893.66
2019-02-09T16:23:01.179Z,98885.76
2019-02-09T16:25:32.991Z,98893.94
2019-02-09T16:28:05.724Z,98902.17
2019-02-09T16:30:36.471Z,98902.36
2019-02-09T16:33:07.350Z,98898.59
2019-02-09T16:35:39.275Z,98910.25
2019-02-09T16:38:09.999Z,98916.86
2019-02-09T16:40:40.661Z,98915.09
2019-02-09T16:43:13.706Z,98918.84
2019-02-09T16:45:44.766Z,98920.22
2019-02-09T16:48:15.841Z,98912.75
2019-02-09T16:50:49.405Z,98923.20
2019-02-09T16:53:22.625Z,98929.09
2019-02-09T16:55:56.817Z,98930.36
2019-02-09T16:58:27.428Z,98938.00
2019-02-09T17:01:05.283Z,98942.03
2019-02-09T17:03:35.115Z,98943.67
2019-02-09T17:06:06.106Z,98941.36
2019-02-09T17:08:44.114Z,98940.67
2019-02-09T17:11:14.737Z,98942.72
2019-02-09T17:13:45.268Z,98941.33
2019-02-09T17:16:16.247Z,98946.16
2019-02-09T17:18:47.012Z,98951.84
2019-02-09T17:21:17.804Z,98946.26
2019-02-09T17:23:48.562Z,98943.90
2019-02-09T17:26:19.293Z,98946.73
2019-02-09T17:28:51.037Z,98951.63
2019-02-09T17:31:21.693Z,98954.27
2019-02-09T17:33:53.891Z,98947.57
2019-02-09T17:36:25.662Z,98950.03
2019-02-09T17:38:56.399Z,98965.70
2019-02-09T17:41:27.128Z,98966.26
2019-02-09T17:44:01.287Z,98968.23
2019-02-09T17:46:35.142Z,98962.77
2019-02-09T17:49:05.781Z,98967.78
2019-02-09T17:51:36.566Z,98969.83
2019-02-09T17:54:07.310Z,98970.87
2019-02-09T17:56:39.999Z,98970.17
2019-02-09T17:59:10.439Z,98975.95
2019-02-09T18:01:41.158Z,98979.20
2019-02-09T18:04:14.583Z,98982.22
2019-02-09T18:06:46.210Z,98983.77
2019-02-09T18:09:19.014Z,98981.06
2019-02-09T18:11:49.510Z,98984.28
2019-02-09T18:14:23.430Z,98981.98
2019-02-09T18:16:54.018Z,98986.00
2019-02-09T18:19:25.904Z,98991.67
2019-02-09T18:21:57.648Z,98988.95
2019-02-09T18:24:29.346Z,98987.07
2019-02-09T18:27:03.834Z,98991.95
2019-02-09T18:29:37.641Z,98990.61
2019-02-09T18:32:17.087Z,98987.61
2019-02-09T18:34:56.819Z,98987.18
2019-02-09T18:37:32.562Z,98996.47
2019-02-09T18:40:12.569Z,98991.73
2019-02-09T18:42:43.157Z,98988.35
2019-02-09T18:45:21.652Z,98986.05
2019-02-09T18:47:52.328Z,98987.72
2019-02-09T18:50:30.534Z,98983.03
2019-02-09T18:53:03.747Z,98985.90
2019-02-09T18:55:34.339Z,98977.09
2019-02-09T18:58:06.275Z,98985.67
2019-02-09T19:00:45.619Z,98984.29
2019-02-09T19:03:19.129Z,98987.83
2019-02-09T19:05:56.502Z,98989.36
2019-02-09T19:08:28.363Z,98989.57
2019-02-09T19:11:00.489Z,98997.89
2019-02-09T19:13:38.326Z,98998.33
2019-02-09T19:16:09.314Z,98995.82
2019-02-09T19:18:40.021Z,99000.53
2019-02-09T19:21:17.971Z,99000.59
2019-02-09T19:23:48.815Z,98996.47
2019-02-09T19:26:23.685Z,98993.61
2019-02-09T19:28:58.984Z,98989.44
2019-02-09T19:31:30.028Z,98992.52
2019-02-09T19:34:04.738Z,98990.83
2019-02-09T19:36:36.579Z,98985.02
2019-02-09T19:39:14.257Z,98995.89
2019-02-09T19:41:50.124Z,98995.94
2019-02-09T19:44:22.029Z,98999.37
2019-02-09T19:46:55.867Z,98992.86
2019-02-09T19:49:30.984Z,99006.09
2019-02-09T19:52:08.370Z,99005.75
2019-02-09T19:54:36.472Z,99002.35
2019-02-09T19:57:10.175Z,98996.20
2019-02-09T19:59:42.594Z,99011.16
2019-02-09T20:02:21.056Z,99004.59
2019-02-09T20:04:57.108Z,99012.59
2019-02-09T20:07:32.067Z,99004.38
2019-02-09T20:10:03.546Z,99005.13
2019-02-09T20:12:35.727Z,99006.89
2019-02-09T20:15:10.179Z,99005.13
2019-02-09T20:17:45.363Z,99005.02
2019-02-09T20:20:23.160Z,99005.88
2019-02-09T20:22:53.826Z,99005.66
2019-02-09T20:25:29.290Z,99006.98
2019-02-09T20:28:04.294Z,99004.42
2019-02-09T20:30:38.931Z,99010.30
2019-02-09T20:33:12.117Z,99012.81
2019-02-09T20:35:49.925Z,99012.82
2019-02-09T20:38:21.812Z,99005.23
2019-02-09T20:40:59.281Z,99009.28
2019-02-09T20:43:34.321Z,99016.34
2019-02-09T20:46:05.304Z,99020.45
2019-02-09T20:48:36.160Z,99016.50
2019-02-09T20:51:07.052Z,99020.61
2019-02-09T20:53:41.300Z,99025.69
2019-02-09T20:56:12.491Z,99021.68
2019-02-09T20:58:45.322Z,99015.69
2019-02-09T21:01:17.099Z,99017.41
2019-02-09T21:03:48.962Z,99020.77
2019-02-09T21:06:20.148Z,99019.43
2019-02-09T21:08:51.101Z,99020.72
2019-02-09T21:11:26.342Z,99021.94
2019-02-09T21:13:56.877Z,99026.20
2019-02-09T21:16:27.486Z,99025.83
2019-02-09T21:19:01.265Z,99027.11
2019-02-09T21:21:37.845Z,99025.14
2019-02-09T21:24:08.496Z,99018.84
2019-02-09T21:26:43.417Z,99022.52
2019-02-09T21:29:15.200Z,99022.94
2019-02-09T21:31:50.039Z,99026.93
2019-02-09T21:34:20.740Z,99024.64
2019-02-09T21:36:52.512Z,99022.00
2019-02-09T21:39:33.726Z,99027.70
2019-02-09T21:42:06.113Z,99026.64
2019-02-09T21:44:40.048Z,99031.56
2019-02-09T21:47:18.903Z,99026.64
2019-02-09T21:49:51.980Z,99028.18
2019-02-09T21:52:26.905Z,99030.73
2019-02-09T21:54:58.586Z,99029.20
2019-02-09T21:57:31.995Z,99030.44
2019-02-09T22:00:06.643Z,99024.67
2019-02-09T22:02:42.683Z,99023.51
2019-02-09T22:05:12.357Z,99025.95
2019-02-09T22:07:43.172Z,99026.97
2019-02-09T22:10:18.827Z,99033.81
2019-02-09T22:12:50.826Z,99025.05
2019-02-09T22:15:24.195Z,99027.34
2019-02-09T22:17:54.916Z,99035.63
2019-02-09T22:20:25.900Z,99029.18
2019-02-09T22:22:56.985Z,99039.49
2019-02-09T22:25:27.711Z,99036.92
2019-02-09T22:27:58.725Z,99025.77
2019-02-09T22:30:30.228Z,99026.81
2019-02-09T22:33:00.969Z,99025.42
2019-02-09T22:35:31.964Z,99029.05
2019-02-09T22:38:02.732Z,99029.20
2019-02-09T22:40:36.054Z,99031.23
2019-02-09T22:43:07.567Z,99032.63
2019-02-09T22:45:38.455Z,99038.80
2019-02-09T22:48:10.638Z,99035.11
2019-02-09T22:50:46.960Z,99043.95
2019-02-09T22:53:17.696Z,99046.06
2019-02-09T22:55:48.496Z,99040.87
2019-02-09T22:58:19.796Z,99047.19
2019-02-09T23:01:16.142Z,99048.27
2019-02-09T23:04:17.466Z,99050.41
2019-02-09T23:07:03.552Z,99054.02
2019-02-09T23:09:34.969Z,99053.38
2019-02-09T23:12:05.621Z,99062.27
2019-02-09T23:14:36.346Z,99057.16
2019-02-09T23:17:07.039Z,99066.34
2019-02-09T23:19:38.202Z,99064.71
2019-02-09T23:22:11.688Z,99067.67
2019-02-09T23:24:42.518Z,99073.55
2019-02-09T23:27:13.567Z,99066.75
2019-02-09T23:29:44.519Z,99072.88
2019-02-09T23:32:15.723Z,99069.95
2019-02-09T23:34:46.968Z,99072.78
2019-02-09T23:37:17.523Z,99072.59
2019-02-09T23:39:48.675Z,99074.02
2019-02-09T23:42:19.320Z,99069.42
2019-02-09T23:44:49.773Z,99077.24
2019-02-09T23:47:20.535Z,99069.97
2019-02-09T23:49:51.665Z,99075.45
2019-02-09T23:52:22.394Z,99072.03
2019-02-09T23:54:53.215Z,99082.92
2019-02-09T23:57:23.905Z,99078.98
2019-02-09T23:59:54.468Z,99089.72
